Time;durP1;ratioP1;P1;durP2;ratioP2;P2;SDS_P1;SDS_P2;PMS_P1;PMS_P2;Temp;Humidity;BMP_temperature;BMP_pressure;BME280_temperature;BME280_humidity;BME280_pressure;Samples;Min_cycle;Max_cycle;Signal;HPM_P1;HPM_P2
2021/07/05 00:02:08;;;;;;;;;;;18.00;92.80;;;;;;4305079;33;31541;-91
2021/07/05 00:04:36;;;;;;;;;;;18.10;92.80;;;;;;4317719;33;26893;-91
2021/07/05 00:07:04;;;;;;;;;;;18.10;92.80;;;;;;4305280;33;37215;-89
2021/07/05 00:09:34;;;;;;;;;;;18.10;92.80;;;;;;4304917;33;40425;-93
2021/07/05 00:12:02;;;;;;;;;;;18.10;92.70;;;;;;4317994;33;28917;-92
2021/07/05 00:14:30;;;;;;;;;;;18.20;92.70;;;;;;4305192;33;27065;-89
2021/07/05 00:16:57;;;;;;;;;;;18.10;92.70;;;;;;4316825;33;41907;-90
2021/07/05 00:19:24;;;;;;;;;;;18.10;92.80;;;;;;4304997;33;37475;-94
2021/07/05 00:21:52;;;;;;;;;;;18.10;92.80;;;;;;4305494;33;20012;-92
2021/07/05 00:24:19;;;;;;;;;;;18.10;92.80;;;;;;4316718;33;30464;-91
2021/07/05 00:26:47;;;;;;;;;;;18.10;92.90;;;;;;4304252;33;40689;-89
2021/07/05 00:29:14;;;;;;;;;;;18.10;92.90;;;;;;4316243;33;45025;-93
2021/07/05 00:31:41;;;;;;;;;;;18.10;92.90;;;;;;4304714;33;33698;-87
2021/07/05 00:34:09;;;;;;;;;;;18.10;92.90;;;;;;4304567;33;45492;-88
2021/07/05 00:36:36;;;;;;;;;;;18.10;92.90;;;;;;4318099;33;20006;-94
2021/07/05 00:39:06;;;;;;;;;;;18.10;92.90;;;;;;4317677;33;20010;-88
2021/07/05 00:41:39;;;;;;;;;;;18.10;92.90;;;;;;4315611;33;33121;-88
2021/07/05 00:44:11;;;;;;;;;;;18.20;93.00;;;;;;4315548;33;36581;-84
2021/07/05 00:46:46;;;;;;;;;;;18.20;93.00;;;;;;4316325;33;20002;-84
2021/07/05 00:49:19;;;;;;;;;;;18.20;93.00;;;;;;4303070;33;39964;-83
2021/07/05 00:51:52;;;;;;;;;;;18.10;93.00;;;;;;4303680;33;20033;-81
2021/07/05 00:54:21;;;;;;;;;;;18.20;93.10;;;;;;4303081;33;39940;-81
2021/07/05 00:56:55;;;;;;;;;;;18.10;93.10;;;;;;4303160;33;44744;-82
2021/07/05 00:59:28;;;;;;;;;;;18.10;93.10;;;;;;4316924;33;20062;-81
2021/07/05 01:02:01;;;;;;;;;;;18.10;93.20;;;;;;4315732;33;20009;-80
2021/07/05 01:04:31;;;;;;;;;;;18.10;93.20;;;;;;4316086;33;20044;-81
2021/07/05 01:07:07;;;;;;;;;;;18.10;93.30;;;;;;4316443;33;20112;-81
2021/07/05 01:09:37;;;;;;;;;;;18.10;93.30;;;;;;4316067;33;20411;-81
2021/07/05 01:12:08;;;;;;;;;;;18.10;93.30;;;;;;4315604;33;37713;-81
2021/07/05 01:14:38;;;;;;;;;;;18.10;93.30;;;;;;4316049;33;20002;-81
2021/07/05 01:17:13;;;;;;;;;;;18.00;93.20;;;;;;4315721;33;20057;-83
2021/07/05 01:19:48;;;;;;;;;;;18.00;93.20;;;;;;4316287;33;20075;-82
2021/07/05 01:22:16;;;;;;;;;;;18.00;93.20;;;;;;4315423;33;26138;-82
2021/07/05 01:24:44;;;;;;;;;;;18.00;93.10;;;;;;4314712;33;30399;-82
2021/07/05 01:27:12;;;;;;;;;;;18.00;93.10;;;;;;4315597;33;27773;-84
2021/07/05 01:29:42;;;;;;;;;;;18.00;93.10;;;;;;4314788;33;38429;-83
2021/07/05 01:32:12;;;;;;;;;;;18.00;93.00;;;;;;4316017;33;20464;-82
2021/07/05 01:34:43;;;;;;;;;;;18.00;93.10;;;;;;4315606;33;20005;-82
2021/07/05 01:37:11;;;;;;;;;;;18.00;93.00;;;;;;4302582;33;40311;-81
2021/07/05 01:39:41;;;;;;;;;;;17.90;93.00;;;;;;4315592;33;43402;-81
2021/07/05 01:42:11;;;;;;;;;;;17.90;93.00;;;;;;4314572;33;34928;-82
2021/07/05 01:44:38;;;;;;;;;;;17.90;93.00;;;;;;4314712;33;40105;-82
2021/07/05 01:47:14;;;;;;;;;;;17.90;92.90;;;;;;4315815;33;20466;-82
2021/07/05 01:49:45;;;;;;;;;;;17.90;93.00;;;;;;4319038;33;20124;-81
2021/07/05 01:52:13;;;;;;;;;;;17.80;92.90;;;;;;4318914;33;39238;-81
2021/07/05 01:54:45;;;;;;;;;;;17.90;92.90;;;;;;4318248;33;20065;-81
2021/07/05 01:57:25;;;;;;;;;;;17.80;92.90;;;;;;4306428;33;20065;-82
2021/07/05 01:59:58;;;;;;;;;;;17.90;92.90;;;;;;4317643;33;31599;-82
2021/07/05 02:02:29;;;;;;;;;;;17.80;92.80;;;;;;4318222;33;20392;-82
2021/07/05 02:05:04;;;;;;;;;;;17.90;92.80;;;;;;4318015;33;20017;-83
2021/07/05 02:07:37;;;;;;;;;;;17.90;92.80;;;;;;4316771;33;44874;-82
2021/07/05 02:10:08;;;;;;;;;;;17.80;92.80;;;;;;4318303;33;20089;-82
2021/07/05 02:12:36;;;;;;;;;;;17.80;92.80;;;;;;4318394;33;20017;-83
2021/07/05 02:15:13;;;;;;;;;;;17.80;92.80;;;;;;4318317;33;20388;-83
2021/07/05 02:17:44;;;;;;;;;;;17.80;92.80;;;;;;4317304;33;37798;-82
2021/07/05 02:20:17;;;;;;;;;;;17.80;92.80;;;;;;4306164;33;20088;-82
2021/07/05 02:22:50;;;;;;;;;;;17.80;92.70;;;;;;4318235;33;20010;-83
2021/07/05 02:25:20;;;;;;;;;;;17.80;92.70;;;;;;4317559;33;32556;-83
2021/07/05 02:27:48;;;;;;;;;;;17.80;92.80;;;;;;4305888;33;20066;-82
2021/07/05 02:30:20;;;;;;;;;;;17.70;92.70;;;;;;4317105;33;22271;-82
2021/07/05 02:32:53;;;;;;;;;;;17.70;92.80;;;;;;4304564;33;42174;-83
2021/07/05 02:35:23;;;;;;;;;;;17.70;92.80;;;;;;4316315;33;45672;-83
2021/07/05 02:37:58;;;;;;;;;;;17.70;92.80;;;;;;4317588;33;25317;-83
2021/07/05 02:40:34;;;;;;;;;;;17.70;92.80;;;;;;4317145;33;44480;-83
2021/07/05 02:43:02;;;;;;;;;;;17.70;92.80;;;;;;4316882;33;27774;-83
2021/07/05 02:45:30;;;;;;;;;;;17.60;92.80;;;;;;4304669;33;36104;-83
2021/07/05 02:48:04;;;;;;;;;;;17.60;92.80;;;;;;4305538;33;20016;-82
2021/07/05 02:50:36;;;;;;;;;;;17.60;92.90;;;;;;4318584;33;19998;-82
2021/07/05 02:53:13;;;;;;;;;;;17.60;92.90;;;;;;4318034;33;20028;-83
2021/07/05 02:55:44;;;;;;;;;;;17.50;92.90;;;;;;4316040;33;46770;-83
2021/07/05 02:58:11;;;;;;;;;;;17.50;92.90;;;;;;4316646;33;24906;-83
2021/07/05 03:00:44;;;;;;;;;;;17.50;92.90;;;;;;4315838;33;42299;-83
2021/07/05 03:03:17;;;;;;;;;;;17.50;92.90;;;;;;4317525;33;20041;-82
2021/07/05 03:05:50;;;;;;;;;;;17.50;92.90;;;;;;4317314;33;19998;-83
2021/07/05 03:08:23;;;;;;;;;;;17.50;92.90;;;;;;4317850;33;34637;-82
2021/07/05 03:10:50;;;;;;;;;;;17.50;92.90;;;;;;4317094;33;20441;-83
2021/07/05 03:13:18;;;;;;;;;;;17.50;92.90;;;;;;4304423;33;33174;-82
2021/07/05 03:15:51;;;;;;;;;;;17.40;92.90;;;;;;4304496;33;34902;-82
2021/07/05 03:18:23;;;;;;;;;;;17.40;92.90;;;;;;4317335;33;20028;-83
2021/07/05 03:20:54;;;;;;;;;;;17.40;92.90;;;;;;4316637;33;35038;-82
2021/07/05 03:23:25;;;;;;;;;;;17.40;92.90;;;;;;4317205;33;19998;-83
2021/07/05 03:25:53;;;;;;;;;;;17.40;92.90;;;;;;4303700;33;45456;-82
2021/07/05 03:28:23;;;;;;;;;;;17.40;92.90;;;;;;4318067;33;20044;-83
2021/07/05 03:30:56;;;;;;;;;;;17.30;92.90;;;;;;4304994;33;19998;-82
2021/07/05 03:33:29;;;;;;;;;;;17.40;93.00;;;;;;4316587;33;25807;-83
2021/07/05 03:35:56;;;;;;;;;;;17.30;93.00;;;;;;4318329;33;20049;-83
2021/07/05 03:38:23;;;;;;;;;;;17.20;93.00;;;;;;4304007;33;35005;-83
2021/07/05 03:40:56;;;;;;;;;;;17.20;93.00;;;;;;4316257;33;38043;-83
2021/07/05 03:43:23;;;;;;;;;;;17.20;93.00;;;;;;4316374;33;25923;-83
2021/07/05 03:45:56;;;;;;;;;;;17.20;93.00;;;;;;4316267;33;26868;-82
2021/07/05 03:48:29;;;;;;;;;;;17.10;93.10;;;;;;4318207;33;20014;-83
2021/07/05 03:51:02;;;;;;;;;;;17.10;93.10;;;;;;4316755;33;21234;-82
2021/07/05 03:53:29;;;;;;;;;;;17.10;93.10;;;;;;4304886;33;20005;-83
2021/07/05 03:56:02;;;;;;;;;;;17.10;93.10;;;;;;4316191;33;31717;-83
2021/07/05 03:58:32;;;;;;;;;;;17.10;93.10;;;;;;4316202;33;20044;-83
2021/07/05 04:01:05;;;;;;;;;;;17.10;93.10;;;;;;4317498;33;20017;-83
2021/07/05 04:03:36;;;;;;;;;;;17.10;93.10;;;;;;4316656;33;20005;-82
2021/07/05 04:06:09;;;;;;;;;;;17.10;93.10;;;;;;4316113;33;42602;-83
2021/07/05 04:08:36;;;;;;;;;;;17.10;93.10;;;;;;4315246;33;41785;-82
2021/07/05 04:11:10;;;;;;;;;;;17.00;93.10;;;;;;4304244;33;20071;-83
2021/07/05 04:13:40;;;;;;;;;;;17.00;93.10;;;;;;4315956;33;23053;-85
2021/07/05 04:16:10;;;;;;;;;;;17.00;93.10;;;;;;4303309;33;41628;-84
2021/07/05 04:18:43;;;;;;;;;;;17.00;93.10;;;;;;4304569;33;20012;-83
2021/07/05 04:21:15;;;;;;;;;;;17.00;93.10;;;;;;4316656;33;20054;-84
2021/07/05 04:23:48;;;;;;;;;;;17.00;93.10;;;;;;4303051;33;40141;-84
2021/07/05 04:26:18;;;;;;;;;;;17.00;93.10;;;;;;4316410;33;20016;-84
2021/07/05 04:28:48;;;;;;;;;;;17.00;93.10;;;;;;4316568;33;20042;-83
2021/07/05 04:31:17;;;;;;;;;;;17.00;93.10;;;;;;4316347;33;20022;-83
2021/07/05 04:33:50;;;;;;;;;;;17.00;93.10;;;;;;4304255;33;20415;-84
2021/07/05 04:36:18;;;;;;;;;;;17.00;93.10;;;;;;4304294;33;20013;-83
2021/07/05 04:38:48;;;;;;;;;;;17.00;93.10;;;;;;4304265;33;19998;-84
2021/07/05 04:41:20;;;;;;;;;;;16.90;93.10;;;;;;4315921;33;20016;-84
2021/07/05 04:43:48;;;;;;;;;;;16.90;93.10;;;;;;4317226;33;20065;-85
2021/07/05 04:46:23;;;;;;;;;;;16.90;93.20;;;;;;4315989;33;20024;-83
2021/07/05 04:48:54;;;;;;;;;;;16.90;93.20;;;;;;4315855;33;23240;-84
2021/07/05 04:51:26;;;;;;;;;;;16.90;93.20;;;;;;4316932;33;20014;-83
2021/07/05 04:53:56;;;;;;;;;;;16.80;93.30;;;;;;4316348;33;20077;-84
2021/07/05 04:56:29;;;;;;;;;;;16.90;93.30;;;;;;4304633;33;20013;-84
2021/07/05 04:58:59;;;;;;;;;;;16.90;93.30;;;;;;4302573;33;43750;-84
2021/07/05 05:01:33;;;;;;;;;;;16.90;93.30;;;;;;4306003;33;20013;-83
2021/07/05 05:04:03;;;;;;;;;;;16.90;93.20;;;;;;4317680;33;27660;-84
2021/07/05 05:06:39;;;;;;;;;;;16.80;93.20;;;;;;4318320;33;20026;-84
2021/07/05 05:09:06;;;;;;;;;;;16.80;93.20;;;;;;4305446;33;23503;-84
2021/07/05 05:11:41;;;;;;;;;;;16.80;93.20;;;;;;4306557;33;19993;-84
2021/07/05 05:14:19;;;;;;;;;;;16.80;93.20;;;;;;4306323;33;20037;-83
2021/07/05 05:16:49;;;;;;;;;;;16.80;93.30;;;;;;4317369;33;37233;-84
2021/07/05 05:19:22;;;;;;;;;;;16.80;93.30;;;;;;4305502;33;30434;-84
2021/07/05 05:21:52;;;;;;;;;;;16.80;93.30;;;;;;4318358;33;20013;-85
2021/07/05 05:24:26;;;;;;;;;;;16.80;93.30;;;;;;4320265;33;20010;-84
2021/07/05 05:27:01;;;;;;;;;;;16.80;93.30;;;;;;4308875;33;20012;-86
2021/07/05 05:29:33;;;;;;;;;;;16.80;93.30;;;;;;4321455;33;20351;-85
2021/07/05 05:32:03;;;;;;;;;;;16.80;93.30;;;;;;4320725;33;32036;-85
2021/07/05 05:34:36;;;;;;;;;;;16.70;93.30;;;;;;4321197;33;20409;-86
2021/07/05 05:37:07;;;;;;;;;;;16.70;93.40;;;;;;4308547;33;24029;-86
2021/07/05 05:39:42;;;;;;;;;;;16.70;93.40;;;;;;4309138;33;20020;-86
2021/07/05 05:42:15;;;;;;;;;;;16.70;93.50;;;;;;4309012;33;22152;-85
2021/07/05 05:44:45;;;;;;;;;;;16.70;93.40;;;;;;4319695;33;40752;-87
2021/07/05 05:47:18;;;;;;;;;;;16.70;93.40;;;;;;4319845;33;41818;-87
2021/07/05 05:49:50;;;;;;;;;;;16.60;93.40;;;;;;4308205;33;31648;-87
2021/07/05 05:52:26;;;;;;;;;;;16.70;93.50;;;;;;4321158;33;33245;-87
2021/07/05 05:54:58;;;;;;;;;;;16.70;93.50;;;;;;4309480;33;20378;-88
2021/07/05 05:57:37;;;;;;;;;;;16.70;93.50;;;;;;4308202;33;20009;-86
2021/07/05 06:00:13;;;;;;;;;;;16.70;93.50;;;;;;4308267;33;23783;-87
2021/07/05 06:02:47;;;;;;;;;;;16.70;93.60;;;;;;4320727;33;20013;-88
2021/07/05 06:05:21;;;;;;;;;;;16.70;93.50;;;;;;4319627;33;43479;-86
2021/07/05 06:07:54;;;;;;;;;;;16.60;93.50;;;;;;4320805;33;20019;-86
2021/07/05 06:10:24;;;;;;;;;;;16.70;93.60;;;;;;4320689;33;20014;-85
2021/07/05 06:12:59;;;;;;;;;;;16.70;93.50;;;;;;4308006;33;41357;-86
2021/07/05 06:15:31;;;;;;;;;;;16.70;93.50;;;;;;4307750;33;36378;-85
2021/07/05 06:18:05;;;;;;;;;;;16.70;93.50;;;;;;4320599;33;20021;-86
2021/07/05 06:20:37;;;;;;;;;;;16.70;93.60;;;;;;4319476;33;39066;-85
2021/07/05 06:23:17;;;;;;;;;;;16.70;93.50;;;;;;4308151;33;20040;-86
2021/07/05 06:25:49;;;;;;;;;;;16.70;93.50;;;;;;4333884;33;20081;-89
2021/07/05 06:28:25;;;;;;;;;;;16.80;93.60;;;;;;4309136;33;20013;-86
2021/07/05 06:30:57;;;;;;;;;;;16.70;93.50;;;;;;4320350;33;20013;-85
2021/07/05 06:33:35;;;;;;;;;;;16.80;93.50;;;;;;4307692;33;25059;-86
2021/07/05 06:36:05;;;;;;;;;;;16.80;93.50;;;;;;4308761;33;20041;-86
2021/07/05 06:38:41;;;;;;;;;;;16.80;93.60;;;;;;4307512;33;32125;-87
2021/07/05 06:41:13;;;;;;;;;;;16.80;93.50;;;;;;4308109;33;20399;-88
2021/07/05 06:43:49;;;;;;;;;;;16.80;93.50;;;;;;4320897;33;20065;-88
2021/07/05 06:46:22;;;;;;;;;;;16.80;93.60;;;;;;4307819;33;36768;-88
2021/07/05 06:48:58;;;;;;;;;;;16.80;93.50;;;;;;4308504;33;19997;-90
2021/07/05 06:51:31;;;;;;;;;;;16.80;93.50;;;;;;4320921;33;20021;-86
2021/07/05 06:54:07;;;;;;;;;;;16.80;93.50;;;;;;4321209;33;20024;-87
2021/07/05 06:56:43;;;;;;;;;;;16.80;93.50;;;;;;4320554;33;20098;-86
2021/07/05 06:59:21;;;;;;;;;;;16.80;93.50;;;;;;4308513;33;20024;-88
2021/07/05 07:01:51;;;;;;;;;;;16.90;93.50;;;;;;4319976;33;20009;-88
2021/07/05 07:04:21;;;;;;;;;;;16.80;93.50;;;;;;4308538;33;20017;-88
2021/07/05 07:06:58;;;;;;;;;;;16.90;93.50;;;;;;4308417;33;20021;-88
2021/07/05 07:09:30;;;;;;;;;;;16.90;93.50;;;;;;4319894;33;22091;-88
2021/07/05 07:12:06;;;;;;;;;;;16.90;93.50;;;;;;4308649;33;20009;-86
2021/07/05 07:14:38;;;;;;;;;;;16.90;93.60;;;;;;4308735;33;20001;-89
2021/07/05 07:17:28;;;;;;;;;;;16.90;93.50;;;;;;4320706;33;20015;-89
2021/07/05 07:20:07;;;;;;;;;;;16.90;93.50;;;;;;4320659;33;19994;-88
2021/07/05 07:22:43;;;;;;;;;;;16.90;93.50;;;;;;4307759;33;27022;-89
2021/07/05 07:25:18;;;;;;;;;;;16.90;93.50;;;;;;4320596;33;20335;-85
2021/07/05 07:27:54;;;;;;;;;;;16.90;93.50;;;;;;4308372;33;20033;-86
2021/07/05 07:30:32;;;;;;;;;;;16.90;93.50;;;;;;4307159;33;33632;-88
2021/07/05 07:33:04;;;;;;;;;;;16.90;93.50;;;;;;4307991;33;19997;-87
2021/07/05 07:35:37;;;;;;;;;;;17.00;93.50;;;;;;4306882;33;33058;-89
2021/07/05 07:38:10;;;;;;;;;;;17.00;93.50;;;;;;4307556;33;20721;-89
2021/07/05 07:40:45;;;;;;;;;;;17.00;93.50;;;;;;4320041;33;20027;-88
2021/07/05 07:43:15;;;;;;;;;;;17.00;93.50;;;;;;4331784;33;22514;-87
2021/07/05 07:45:47;;;;;;;;;;;16.90;93.50;;;;;;4318482;33;35533;-89
2021/07/05 07:48:24;;;;;;;;;;;17.00;93.60;;;;;;4308222;33;20357;-88
2021/07/05 07:50:57;;;;;;;;;;;17.00;93.60;;;;;;4307774;33;20507;-87
2021/07/05 07:53:30;;;;;;;;;;;16.90;93.60;;;;;;4332936;33;28679;-88
2021/07/05 07:56:02;;;;;;;;;;;16.90;93.50;;;;;;4308100;33;20040;-87
2021/07/05 07:58:36;;;;;;;;;;;16.90;93.60;;;;;;4307770;33;20504;-89
2021/07/05 08:01:08;;;;;;;;;;;16.90;93.60;;;;;;4319640;33;23487;-88
2021/07/05 08:03:44;;;;;;;;;;;16.90;93.60;;;;;;4319225;33;22866;-89
2021/07/05 08:06:19;;;;;;;;;;;16.90;93.50;;;;;;4319642;33;20002;-88
2021/07/05 08:08:55;;;;;;;;;;;16.90;93.60;;;;;;4319355;33;37706;-89
2021/07/05 08:11:31;;;;;;;;;;;16.90;93.60;;;;;;4307984;33;20069;-88
2021/07/05 08:14:04;;;;;;;;;;;16.90;93.60;;;;;;4307185;33;29575;-89
2021/07/05 08:16:37;;;;;;;;;;;16.90;93.60;;;;;;4307764;33;20005;-89
2021/07/05 08:19:11;;;;;;;;;;;16.90;93.50;;;;;;4319955;33;20427;-89
2021/07/05 08:21:43;;;;;;;;;;;17.00;93.50;;;;;;4307326;33;23058;-89
2021/07/05 08:24:17;;;;;;;;;;;17.00;93.50;;;;;;4320171;33;20010;-88
2021/07/05 08:26:53;;;;;;;;;;;17.00;93.50;;;;;;4307038;33;34438;-87
2021/07/05 08:29:23;;;;;;;;;;;17.00;93.50;;;;;;4319872;33;20014;-90
2021/07/05 08:32:01;;;;;;;;;;;17.00;93.50;;;;;;4319811;33;20050;-89
2021/07/05 08:34:35;;;;;;;;;;;17.00;93.40;;;;;;4319385;33;20354;-91
2021/07/05 08:37:11;;;;;;;;;;;17.00;93.80;;;;;;4319619;33;20148;-89
2021/07/05 08:39:41;;;;;;;;;;;17.00;93.40;;;;;;4306470;33;36299;-88
2021/07/05 08:42:21;;;;;;;;;;;17.00;93.40;;;;;;4307740;33;19997;-91
2021/07/05 08:44:54;;;;;;;;;;;17.00;93.40;;;;;;4306972;33;20072;-88
2021/07/05 08:47:28;;;;;;;;;;;17.00;93.40;;;;;;4306379;33;25119;-89
2021/07/05 08:50:01;;;;;;;;;;;17.00;93.40;;;;;;4319617;33;20069;-88
2021/07/05 08:52:44;;;;;;;;;;;17.00;93.40;;;;;;4306486;33;37552;-91
2021/07/05 08:55:15;;;;;;;;;;;17.00;93.30;;;;;;4319114;33;24547;-89
2021/07/05 08:57:48;;;;;;;;;;;17.00;93.30;;;;;;4306517;33;40514;-89
2021/07/05 09:00:25;;;;;;;;;;;17.00;93.30;;;;;;4307711;33;20105;-88
2021/07/05 09:02:56;;;;;;;;;;;17.00;93.30;;;;;;4318905;33;20001;-88
2021/07/05 09:05:34;;;;;;;;;;;17.00;93.30;;;;;;4319690;33;20061;-88
2021/07/05 09:08:11;;;;;;;;;;;17.00;93.20;;;;;;4319555;33;20029;-89
2021/07/05 09:10:52;;;;;;;;;;;17.00;93.10;;;;;;4319096;33;20024;-90
2021/07/05 09:13:25;;;;;;;;;;;17.10;93.10;;;;;;4307063;33;20391;-88
2021/07/05 09:16:05;;;;;;;;;;;17.00;93.30;;;;;;4307826;33;19997;-89
2021/07/05 09:18:46;;;;;;;;;;;17.10;93.00;;;;;;4319069;33;32695;-88
2021/07/05 09:21:22;;;;;;;;;;;17.10;92.90;;;;;;4307050;33;20017;-89
2021/07/05 09:24:11;;;;;;;;;;;17.10;92.90;;;;;;4319589;33;20027;-89
2021/07/05 09:26:42;;;;;;;;;;;17.10;92.80;;;;;;4306528;33;22931;-89
2021/07/05 09:29:20;;;;;;;;;;;17.20;92.80;;;;;;4307166;33;20032;-89
2021/07/05 09:32:00;;;;;;;;;;;17.20;92.80;;;;;;4306257;33;33855;-88
2021/07/05 09:34:38;;;;;;;;;;;17.10;92.80;;;;;;4307284;33;20069;-87
2021/07/05 09:37:21;;;;;;;;;;;17.20;92.80;;;;;;4307106;33;20039;-89
2021/07/05 09:40:10;;;;;;;;;;;17.20;92.80;;;;;;4319314;33;20065;-89
2021/07/05 09:42:55;;;;;;;;;;;17.20;92.80;;;;;;4306255;33;35048;-90
2021/07/05 09:45:22;;;;;;;;;;;17.20;92.80;;;;;;4306139;33;25620;-93
2021/07/05 09:48:08;;;;;;;;;;;17.20;92.80;;;;;;4306674;33;20001;-88
2021/07/05 09:50:39;;;;;;;;;;;17.20;92.80;;;;;;4318818;33;20008;-89
2021/07/05 09:53:26;;;;;;;;;;;17.20;92.80;;;;;;4307196;33;20106;-91
2021/07/05 09:56:16;;;;;;;;;;;17.20;92.80;;;;;;4319611;33;20017;-88
2021/07/05 09:58:49;;;;;;;;;;;17.20;92.80;;;;;;4307691;33;20027;-91
2021/07/05 10:01:44;;;;;;;;;;;17.20;92.80;;;;;;4319512;33;20045;-91
2021/07/05 10:04:14;;;;;;;;;;;17.20;92.90;;;;;;4307216;33;20068;-90
2021/07/05 10:06:51;;;;;;;;;;;17.20;92.80;;;;;;4333006;33;20057;-91
2021/07/05 10:09:33;;;;;;;;;;;17.30;92.90;;;;;;4320197;33;19994;-92
2021/07/05 10:12:19;;;;;;;;;;;17.30;92.90;;;;;;4310115;33;20002;-94
2021/07/05 10:14:57;;;;;;;;;;;17.30;93.00;;;;;;4309108;33;29906;-90
2021/07/05 10:17:36;;;;;;;;;;;17.30;93.00;;;;;;4322094;33;19998;-88
2021/07/05 10:20:11;;;;;;;;;;;17.30;93.00;;;;;;4310107;33;20054;-91
2021/07/05 10:22:50;;;;;;;;;;;17.30;93.00;;;;;;4322338;33;20077;-91
2021/07/05 10:25:26;;;;;;;;;;;17.30;93.00;;;;;;4321279;33;20120;-87
2021/07/05 10:27:59;;;;;;;;;;;17.30;93.00;;;;;;4307542;33;26235;-88
2021/07/05 10:30:32;;;;;;;;;;;17.30;93.00;;;;;;4308533;33;20024;-89
2021/07/05 10:33:06;;;;;;;;;;;17.30;93.10;;;;;;4308438;33;31390;-90
2021/07/05 10:35:44;;;;;;;;;;;17.30;93.20;;;;;;4320544;33;41601;-91
2021/07/05 10:38:22;;;;;;;;;;;17.30;93.20;;;;;;4309078;33;20017;-90
2021/07/05 10:41:00;;;;;;;;;;;17.30;93.20;;;;;;4309761;33;20376;-91
2021/07/05 10:43:46;;;;;;;;;;;17.30;93.20;;;;;;4309745;33;20025;-90
2021/07/05 10:46:33;;;;;;;;;;;17.30;93.30;;;;;;4321860;33;20076;-90
2021/07/05 10:49:27;;;;;;;;;;;17.30;93.30;;;;;;4321940;33;20061;-91
2021/07/05 10:52:00;;;;;;;;;;;17.30;93.20;;;;;;4320119;33;22053;-90
2021/07/05 10:54:47;;;;;;;;;;;17.40;93.30;;;;;;4319769;33;38912;-90
2021/07/05 10:57:18;;;;;;;;;;;17.40;93.30;;;;;;4320757;33;20013;-90
2021/07/05 10:59:50;;;;;;;;;;;17.40;93.30;;;;;;4308896;33;19998;-90
2021/07/05 11:02:35;;;;;;;;;;;17.40;93.30;;;;;;4306078;33;20023;-90
2021/07/05 11:05:35;;;;;;;;;;;17.40;93.30;;;;;;4318419;33;20006;-89
2021/07/05 11:08:23;;;;;;;;;;;17.40;93.30;;;;;;4317271;33;31244;-89
2021/07/05 11:11:13;;;;;;;;;;;17.40;93.30;;;;;;4317408;33;34837;-89
2021/07/05 11:13:41;;;;;;;;;;;17.40;93.30;;;;;;4318238;33;20416;-90
2021/07/05 11:16:08;;;;;;;;;;;17.40;93.40;;;;;;4305869;33;20482;-91
2021/07/05 11:18:36;;;;;;;;;;;17.50;93.40;;;;;;4317813;33;26618;-92
2021/07/05 11:21:12;;;;;;;;;;;17.40;93.40;;;;;;4318480;33;20025;-91
2021/07/05 11:23:59;;;;;;;;;;;17.50;93.40;;;;;;4318424;33;20079;-93
2021/07/05 11:26:35;;;;;;;;;;;17.50;93.40;;;;;;4305249;33;41641;-92
2021/07/05 11:29:20;;;;;;;;;;;17.50;93.40;;;;;;4317716;33;20072;-92
2021/07/05 11:32:00;;;;;;;;;;;17.40;93.40;;;;;;4318167;33;20097;-90
2021/07/05 11:34:35;;;;;;;;;;;17.50;93.50;;;;;;4317849;33;23642;-91
2021/07/05 11:37:12;;;;;;;;;;;17.50;93.50;;;;;;4317582;33;20024;-92
2021/07/05 11:39:46;;;;;;;;;;;17.50;93.80;;;;;;4306252;33;20380;-91
2021/07/05 11:42:35;;;;;;;;;;;17.50;93.50;;;;;;4318783;33;35712;-93
2021/07/05 11:45:07;;;;;;;;;;;17.50;93.50;;;;;;4305564;33;20041;-92
2021/07/05 11:47:46;;;;;;;;;;;17.50;93.50;;;;;;4318617;33;20004;-93
2021/07/05 11:50:24;;;;;;;;;;;17.50;93.50;;;;;;4318113;33;23702;-92
2021/07/05 11:52:57;;;;;;;;;;;17.50;93.50;;;;;;4306149;33;20001;-93
2021/07/05 11:55:35;;;;;;;;;;;17.50;93.40;;;;;;4318452;33;20418;-92
2021/07/05 11:58:11;;;;;;;;;;;17.50;93.40;;;;;;4305538;33;30917;-93
2021/07/05 12:00:44;;;;;;;;;;;17.50;93.40;;;;;;4318741;33;20013;-93
2021/07/05 12:03:20;;;;;;;;;;;17.50;93.40;;;;;;4305599;33;31025;-92
2021/07/05 12:06:00;;;;;;;;;;;17.50;93.30;;;;;;4306167;33;20066;-92
2021/07/05 12:08:30;;;;;;;;;;;17.50;93.30;;;;;;4317293;33;30427;-92
2021/07/05 12:10:59;;;;;;;;;;;17.50;93.30;;;;;;4305093;33;39542;-92
2021/07/05 12:13:30;;;;;;;;;;;17.60;93.40;;;;;;4317001;33;37311;-93
2021/07/05 12:16:03;;;;;;;;;;;17.60;93.40;;;;;;4305409;33;37687;-93
2021/07/05 12:18:33;;;;;;;;;;;17.60;93.30;;;;;;4318231;33;20034;-93
2021/07/05 12:21:08;;;;;;;;;;;17.60;93.30;;;;;;4305353;33;24930;-93
2021/07/05 12:23:38;;;;;;;;;;;17.60;93.30;;;;;;4318159;33;20022;-92
2021/07/05 12:26:15;;;;;;;;;;;17.60;93.30;;;;;;4318393;33;20068;-93
2021/07/05 12:29:01;;;;;;;;;;;17.60;93.30;;;;;;4318114;33;20073;-93
2021/07/05 12:31:37;;;;;;;;;;;17.60;93.50;;;;;;4305808;33;20013;-92
2021/07/05 12:34:07;;;;;;;;;;;17.60;93.30;;;;;;4318412;33;20459;-93
2021/07/05 12:36:46;;;;;;;;;;;17.60;93.30;;;;;;4306640;33;20002;-93
2021/07/05 12:39:21;;;;;;;;;;;17.60;93.30;;;;;;4318432;33;20061;-94
2021/07/05 12:41:52;;;;;;;;;;;17.60;93.30;;;;;;4318160;33;20074;-94
2021/07/05 12:44:27;;;;;;;;;;;17.70;93.30;;;;;;4317590;33;20018;-92
2021/07/05 12:47:03;;;;;;;;;;;17.60;93.30;;;;;;4305855;33;20033;-92
2021/07/05 12:49:38;;;;;;;;;;;17.70;93.30;;;;;;4318080;33;20028;-94
2021/07/05 12:52:10;;;;;;;;;;;17.70;93.30;;;;;;4306035;33;20407;-91
2021/07/05 12:54:51;;;;;;;;;;;17.70;93.30;;;;;;4317916;33;20061;-91
2021/07/05 12:57:29;;;;;;;;;;;17.70;93.30;;;;;;4305652;33;20041;-91
2021/07/05 13:00:07;;;;;;;;;;;17.70;93.30;;;;;;4317726;33;20008;-91
2021/07/05 13:02:42;;;;;;;;;;;17.70;93.30;;;;;;4316937;33;20023;-90
2021/07/05 13:05:18;;;;;;;;;;;17.70;93.30;;;;;;4317517;33;20109;-91
2021/07/05 13:07:54;;;;;;;;;;;17.70;93.30;;;;;;4304386;33;28535;-90
2021/07/05 13:10:27;;;;;;;;;;;17.70;93.30;;;;;;4316821;33;22923;-90
2021/07/05 13:12:56;;;;;;;;;;;17.70;93.30;;;;;;4303659;33;38599;-90
2021/07/05 13:15:31;;;;;;;;;;;17.80;93.30;;;;;;4303840;33;31214;-89
2021/07/05 13:18:13;;;;;;;;;;;17.80;93.40;;;;;;4304389;33;20006;-89
2021/07/05 13:20:48;;;;;;;;;;;17.80;93.30;;;;;;4315278;33;42969;-88
2021/07/05 13:23:30;;;;;;;;;;;17.80;93.30;;;;;;4303251;33;36135;-88
2021/07/05 13:26:06;;;;;;;;;;;17.80;93.30;;;;;;4316697;33;20014;-88
2021/07/05 13:28:53;;;;;;;;;;;17.80;93.30;;;;;;4303734;33;20414;-88
2021/07/05 13:31:37;;;;;;;;;;;17.80;93.30;;;;;;4316101;33;20061;-88
2021/07/05 13:34:25;;;;;;;;;;;17.80;93.30;;;;;;4302700;33;34635;-87
2021/07/05 13:37:00;;;;;;;;;;;17.80;93.30;;;;;;4311014;33;20006;-89
2021/07/05 13:39:33;;;;;;;;;;;17.80;93.30;;;;;;4315943;33;19994;-89
2021/07/05 13:42:14;;;;;;;;;;;17.90;93.30;;;;;;4316321;33;20057;-88
2021/07/05 13:44:54;;;;;;;;;;;17.80;93.30;;;;;;4317328;33;20008;-87
2021/07/05 13:47:27;;;;;;;;;;;17.80;93.30;;;;;;4305410;33;46707;-87
2021/07/05 13:50:09;;;;;;;;;;;17.80;93.40;;;;;;4319066;33;20057;-87
2021/07/05 13:52:42;;;;;;;;;;;17.90;93.40;;;;;;4305407;33;44247;-87
2021/07/05 13:55:29;;;;;;;;;;;17.80;93.40;;;;;;4318808;33;19999;-88
2021/07/05 13:58:06;;;;;;;;;;;17.90;93.40;;;;;;4318183;33;20017;-87
2021/07/05 14:00:42;;;;;;;;;;;17.90;93.40;;;;;;4317917;33;20028;-86
2021/07/05 14:03:19;;;;;;;;;;;17.90;93.40;;;;;;4305817;33;20013;-86
2021/07/05 14:05:50;;;;;;;;;;;17.90;93.40;;;;;;4317654;33;43849;-85
2021/07/05 14:08:17;;;;;;;;;;;17.90;93.40;;;;;;4317306;33;42747;-87
2021/07/05 14:10:45;;;;;;;;;;;18.00;93.50;;;;;;4316895;33;39860;-86
2021/07/05 14:13:13;;;;;;;;;;;18.00;93.50;;;;;;4317482;33;37837;-86
2021/07/05 14:15:42;;;;;;;;;;;18.00;93.50;;;;;;4316963;33;45522;-89
2021/07/05 14:18:09;;;;;;;;;;;18.00;93.50;;;;;;4304832;33;45274;-85
2021/07/05 14:20:37;;;;;;;;;;;18.00;93.50;;;;;;4316760;33;45125;-86
2021/07/05 14:23:06;;;;;;;;;;;18.00;93.50;;;;;;4304765;33;45151;-86
2021/07/05 14:25:33;;;;;;;;;;;18.00;93.50;;;;;;4317095;33;41252;-86
2021/07/05 14:28:01;;;;;;;;;;;18.00;93.50;;;;;;4304595;33;34151;-86
2021/07/05 14:30:28;;;;;;;;;;;18.10;93.50;;;;;;4317201;33;20976;-87
2021/07/05 14:32:55;;;;;;;;;;;18.00;93.50;;;;;;4317091;33;42883;-87
2021/07/05 14:35:23;;;;;;;;;;;18.10;93.50;;;;;;4317021;33;33262;-87
2021/07/05 14:37:56;;;;;;;;;;;18.10;93.60;;;;;;4305233;33;32523;-87
2021/07/05 14:40:24;;;;;;;;;;;18.10;93.60;;;;;;4318033;33;20002;-85
2021/07/05 14:42:51;;;;;;;;;;;18.10;93.60;;;;;;4316752;33;44492;-86
2021/07/05 14:45:22;;;;;;;;;;;18.10;93.60;;;;;;4304607;33;45625;-81
2021/07/05 14:47:50;;;;;;;;;;;18.10;93.60;;;;;;4317258;33;20477;-87
2021/07/05 14:50:25;;;;;;;;;;;18.20;93.60;;;;;;4316660;33;46795;-84
2021/07/05 14:52:55;;;;;;;;;;;18.20;93.60;;;;;;4304534;33;44178;-86
2021/07/05 14:55:28;;;;;;;;;;;18.20;93.60;;;;;;4316539;33;39556;-84